createdAt,value
2018-01-16T00:00:04.718Z,2.97
2018-01-16T00:02:32.914Z,2.30
2018-01-16T00:05:00.343Z,2.33
2018-01-16T00:07:27.770Z,2.57
2018-01-16T00:09:55.202Z,2.60
2018-01-16T00:12:22.631Z,3.00
2018-01-16T00:14:50.066Z,2.40
2018-01-16T00:17:17.492Z,2.73
2018-01-16T00:19:45.122Z,2.17
2018-01-16T00:22:18.377Z,1.80
2018-01-16T00:24:45.815Z,2.13
2018-01-16T00:27:13.238Z,2.60
2018-01-16T00:29:41.435Z,2.60
2018-01-16T00:32:08.872Z,2.27
2018-01-16T00:34:36.303Z,3.03
2018-01-16T00:37:03.739Z,2.87
2018-01-16T00:39:31.166Z,2.53
2018-01-16T00:41:58.599Z,2.20
2018-01-16T00:44:26.027Z,2.87
2018-01-16T00:46:53.464Z,2.50
2018-01-16T00:49:20.892Z,3.20
2018-01-16T00:51:48.327Z,2.60
2018-01-16T00:54:15.755Z,2.70
2018-01-16T00:56:43.187Z,2.90
2018-01-16T00:59:10.648Z,3.17
2018-01-16T01:01:38.851Z,2.87
2018-01-16T01:04:06.279Z,3.07
2018-01-16T01:06:33.715Z,3.40
2018-01-16T01:09:01.138Z,2.80
2018-01-16T01:11:28.571Z,2.63
2018-01-16T01:13:56.003Z,2.70
2018-01-16T01:16:23.435Z,2.50
2018-01-16T01:18:50.862Z,2.07
2018-01-16T01:21:18.294Z,2.50
2018-01-16T01:23:45.722Z,2.50
2018-01-16T01:26:13.155Z,2.57
2018-01-16T01:28:40.582Z,2.33
2018-01-16T01:31:08.015Z,2.30
2018-01-16T01:33:35.442Z,2.23
2018-01-16T01:36:02.871Z,1.93
2018-01-16T01:38:30.302Z,2.00
2018-01-16T01:40:57.736Z,2.10
2018-01-16T01:43:25.163Z,2.30
2018-01-16T01:45:52.599Z,3.00
2018-01-16T01:48:20.034Z,2.43
2018-01-16T01:50:47.462Z,2.70
2018-01-16T01:53:14.892Z,2.10
2018-01-16T01:55:42.318Z,2.20
2018-01-16T01:58:09.746Z,2.00
2018-01-16T02:00:37.183Z,2.50
2018-01-16T02:03:04.606Z,2.20
2018-01-16T02:05:32.047Z,2.10
2018-01-16T02:07:59.470Z,2.13
2018-01-16T02:10:26.902Z,2.27
2018-01-16T02:12:54.334Z,1.70
2018-01-16T02:15:21.758Z,1.83
2018-01-16T02:17:49.194Z,1.87
2018-01-16T02:20:16.618Z,2.03
2018-01-16T02:22:44.050Z,1.70
2018-01-16T02:25:11.474Z,1.83
2018-01-16T02:27:38.906Z,1.70
2018-01-16T02:30:06.335Z,1.77
2018-01-16T02:32:33.767Z,1.83
2018-01-16T02:35:01.186Z,1.30
2018-01-16T02:37:28.622Z,1.57
2018-01-16T02:39:56.047Z,1.48
2018-01-16T02:42:23.482Z,1.40
2018-01-16T02:44:50.903Z,1.53
2018-01-16T02:47:19.103Z,1.60
2018-01-16T02:49:47.330Z,1.77
2018-01-16T02:52:14.758Z,1.67
2018-01-16T02:54:42.184Z,1.27
2018-01-16T02:57:09.614Z,1.40
2018-01-16T02:59:37.042Z,1.33
2018-01-16T03:02:04.476Z,1.67
2018-01-16T03:04:31.898Z,1.40
2018-01-16T03:06:59.330Z,1.10
2018-01-16T03:09:26.756Z,1.23
2018-01-16T03:11:54.187Z,1.53
2018-01-16T03:14:21.658Z,1.40
2018-01-16T03:16:49.090Z,1.30
2018-01-16T03:19:16.519Z,1.23
2018-01-16T03:21:43.956Z,1.37
2018-01-16T03:24:11.379Z,1.30
2018-01-16T03:26:39.578Z,1.13
2018-01-16T03:29:07.010Z,1.43
2018-01-16T03:31:35.202Z,1.10
2018-01-16T03:34:02.625Z,1.17
2018-01-16T03:36:30.062Z,1.40
2018-01-16T03:38:57.491Z,1.27
2018-01-16T03:41:24.927Z,1.10
2018-01-16T03:43:52.354Z,1.10
2018-01-16T03:46:19.791Z,1.07
2018-01-16T03:48:47.210Z,1.10
2018-01-16T03:53:48.471Z,0.80
2018-01-16T03:56:16.670Z,1.40
2018-01-16T03:58:44.863Z,1.00
2018-01-16T04:01:13.055Z,1.20
2018-01-16T04:03:41.302Z,0.90
2018-01-16T04:06:08.727Z,1.00
2018-01-16T04:08:36.162Z,1.30
2018-01-16T04:11:03.587Z,0.80
2018-01-16T04:13:31.790Z,0.80
2018-01-16T04:15:59.990Z,0.80
2018-01-16T04:18:28.186Z,0.90
2018-01-16T04:20:56.387Z,0.90
2018-01-16T04:23:24.582Z,0.90
2018-01-16T04:25:52.778Z,1.03
2018-01-16T04:28:20.211Z,1.00
2018-01-16T04:30:47.638Z,0.90
2018-01-16T04:33:15.070Z,0.90
2018-01-16T04:35:42.498Z,0.80
2018-01-16T04:38:09.930Z,0.90
2018-01-16T04:40:37.350Z,1.10
2018-01-16T04:43:04.792Z,1.00
2018-01-16T04:45:32.206Z,0.80
2018-01-16T04:47:59.642Z,0.97
2018-01-16T04:50:27.062Z,0.80
2018-01-16T04:52:54.499Z,0.90
2018-01-16T04:55:21.922Z,1.30
2018-01-16T04:57:49.354Z,1.37
2018-01-16T05:00:16.778Z,0.80
2018-01-16T05:02:44.211Z,0.87
2018-01-16T05:05:11.639Z,0.80
2018-01-16T05:07:39.072Z,0.60
2018-01-16T05:10:06.503Z,0.70
2018-01-16T05:12:33.938Z,0.70
2018-01-16T05:15:01.358Z,0.77
2018-01-16T05:17:28.790Z,1.00
2018-01-16T05:19:56.215Z,0.80
2018-01-16T05:22:23.642Z,0.90
2018-01-16T05:24:51.070Z,0.77
2018-01-16T05:27:18.506Z,0.70
2018-01-16T05:29:45.939Z,0.70
2018-01-16T05:32:13.419Z,0.60
2018-01-16T05:34:40.842Z,0.77
2018-01-16T05:37:09.050Z,0.60
2018-01-16T05:39:37.238Z,0.60
2018-01-16T05:42:05.430Z,0.60
2018-01-16T05:44:34.462Z,0.60
2018-01-16T05:47:01.898Z,0.50
2018-01-16T05:49:29.322Z,0.70
2018-01-16T05:51:56.759Z,0.63
2018-01-16T05:54:24.182Z,0.50
2018-01-16T05:56:51.630Z,0.50
2018-01-16T05:59:19.054Z,0.60
2018-01-16T06:01:46.478Z,0.70
2018-01-16T06:04:13.915Z,0.70
2018-01-16T06:06:41.347Z,0.70
2018-01-16T06:09:08.778Z,0.67
2018-01-16T06:11:36.207Z,0.70
2018-01-16T06:14:03.634Z,0.77
2018-01-16T06:16:31.064Z,1.00
2018-01-16T06:18:58.494Z,1.10
2018-01-16T06:21:25.922Z,1.03
2018-01-16T06:23:53.354Z,0.90
2018-01-16T06:26:20.783Z,0.83
2018-01-16T06:28:48.214Z,0.80
2018-01-16T06:31:15.638Z,0.80
2018-01-16T06:33:43.074Z,1.10
2018-01-16T06:36:10.503Z,1.23
2018-01-16T06:38:37.942Z,0.90
2018-01-16T06:41:05.366Z,1.20
2018-01-16T06:43:32.833Z,0.83
2018-01-16T06:46:00.254Z,0.97
2018-01-16T06:48:28.470Z,1.07
2018-01-16T06:50:55.890Z,1.00
2018-01-16T06:53:23.326Z,0.90
2018-01-16T06:55:50.754Z,0.90
2018-01-16T06:58:18.187Z,0.90
2018-01-16T07:00:45.610Z,0.90
2018-01-16T07:03:13.049Z,0.90
2018-01-16T07:05:40.478Z,1.00
2018-01-16T07:08:07.915Z,0.90
2018-01-16T07:10:35.343Z,1.10
2018-01-16T07:13:02.789Z,1.00
2018-01-16T07:15:30.199Z,1.07
2018-01-16T07:17:57.638Z,1.00
2018-01-16T07:20:25.063Z,1.20
2018-01-16T07:22:52.491Z,0.73
2018-01-16T07:25:19.914Z,0.87
2018-01-16T07:27:47.350Z,1.10
2018-01-16T07:30:14.779Z,1.03
2018-01-16T07:32:42.210Z,1.10
2018-01-16T07:35:09.638Z,0.80
2018-01-16T07:37:37.110Z,1.07
2018-01-16T07:40:04.518Z,0.90
2018-01-16T07:42:31.958Z,0.70
2018-01-16T07:44:59.384Z,0.60
2018-01-16T07:47:26.815Z,0.93
2018-01-16T07:52:21.671Z,0.90
2018-01-16T07:54:49.102Z,0.90
2018-01-16T07:57:16.534Z,0.90
2018-01-16T07:59:43.970Z,0.70
2018-01-16T08:02:11.393Z,1.03
2018-01-16T08:04:38.822Z,0.90
2018-01-16T08:07:06.250Z,0.80
2018-01-16T08:09:33.686Z,1.07
2018-01-16T08:12:01.110Z,0.77
2018-01-16T08:14:28.542Z,0.70
2018-01-16T08:16:55.983Z,0.60
2018-01-16T08:19:23.399Z,0.87
2018-01-16T08:21:50.823Z,0.70
2018-01-16T08:24:19.024Z,0.90
2018-01-16T08:26:47.214Z,0.80
2018-01-16T08:29:14.647Z,0.60
2018-01-16T08:31:42.077Z,0.60
2018-01-16T08:34:09.510Z,0.50
2018-01-16T08:36:36.944Z,0.57
2018-01-16T08:39:05.138Z,0.60
2018-01-16T08:41:33.327Z,0.60
2018-01-16T08:44:00.764Z,0.80
2018-01-16T08:46:28.191Z,0.50
2018-01-16T08:48:55.627Z,0.80
2018-01-16T08:51:23.055Z,0.80
2018-01-16T08:53:51.255Z,1.30
2018-01-16T08:56:18.688Z,0.60
2018-01-16T08:58:46.879Z,1.07
2018-01-16T09:01:15.074Z,1.10
2018-01-16T09:03:43.270Z,1.37
2018-01-16T09:06:11.466Z,1.23
2018-01-16T09:08:39.671Z,1.60
2018-01-16T09:11:07.867Z,3.03
2018-01-16T09:13:36.079Z,1.53
2018-01-16T09:16:03.627Z,0.90
2018-01-16T09:18:31.132Z,0.50
2018-01-16T09:20:59.319Z,0.57
2018-01-16T09:23:26.750Z,0.67
2018-01-16T09:25:54.172Z,0.80
2018-01-16T09:28:21.607Z,0.50
2018-01-16T09:30:49.031Z,0.53
2018-01-16T09:33:16.471Z,0.70
2018-01-16T09:35:43.895Z,0.50
2018-01-16T09:38:11.322Z,0.60
2018-01-16T09:40:39.520Z,0.50
2018-01-16T09:43:06.960Z,0.70
2018-01-16T09:45:34.389Z,0.40
2018-01-16T09:48:01.811Z,0.57
2018-01-16T09:50:29.243Z,0.70
2018-01-16T09:52:56.675Z,0.70
2018-01-16T09:55:24.103Z,0.60
2018-01-16T09:57:51.522Z,0.60
2018-01-16T10:00:18.967Z,0.50
2018-01-16T10:02:46.395Z,0.50
2018-01-16T10:05:13.824Z,0.50
2018-01-16T10:07:41.292Z,0.60
2018-01-16T10:10:08.687Z,0.60
2018-01-16T10:12:36.114Z,0.50
2018-01-16T10:15:03.566Z,0.60
2018-01-16T10:17:30.990Z,0.70
2018-01-16T10:19:59.111Z,0.50
2018-01-16T10:22:27.310Z,0.50
2018-01-16T10:24:55.502Z,0.80
2018-01-16T10:27:22.938Z,0.60
2018-01-16T10:29:50.370Z,0.70
2018-01-16T10:32:17.797Z,0.70
2018-01-16T10:34:45.994Z,0.70
2018-01-16T10:37:14.186Z,0.60
2018-01-16T10:39:42.383Z,0.53
2018-01-16T10:42:10.575Z,0.60
2018-01-16T10:44:38.006Z,0.60
2018-01-16T10:47:05.435Z,0.80
2018-01-16T10:49:33.638Z,0.90
2018-01-16T10:52:01.058Z,0.87
2018-01-16T10:54:28.490Z,0.70
2018-01-16T10:56:55.914Z,0.63
2018-01-16T10:59:23.351Z,0.97
2018-01-16T11:01:50.782Z,0.80
2018-01-16T11:04:18.214Z,0.63
2018-01-16T11:06:45.638Z,0.50
2018-01-16T11:09:13.070Z,0.67
2018-01-16T11:11:40.507Z,1.10
2018-01-16T11:14:07.939Z,0.70
2018-01-16T11:16:35.367Z,0.80
2018-01-16T11:19:02.812Z,0.90
2018-01-16T11:21:30.222Z,1.33
2018-01-16T11:23:57.664Z,0.60
2018-01-16T11:26:25.091Z,0.60
2018-01-16T11:28:52.523Z,0.70
2018-01-16T11:31:19.946Z,0.90
2018-01-16T11:33:48.154Z,0.60
2018-01-16T11:36:15.586Z,0.60
2018-01-16T11:38:43.007Z,0.63
2018-01-16T11:41:11.211Z,0.60
2018-01-16T11:43:38.647Z,1.30
2018-01-16T11:46:06.090Z,0.70
2018-01-16T11:48:33.539Z,0.80
2018-01-16T11:51:01.739Z,1.48
2018-01-16T11:53:29.934Z,1.10
2018-01-16T11:55:58.146Z,1.37
2018-01-16T11:58:26.354Z,0.60
2018-01-16T12:00:54.546Z,0.60
2018-01-16T12:03:22.751Z,0.50
2018-01-16T12:05:50.947Z,0.50
2018-01-16T12:08:19.144Z,0.50
2018-01-16T12:10:47.339Z,0.50
2018-01-16T12:13:14.774Z,0.50
2018-01-16T12:15:42.198Z,0.50
2018-01-16T12:18:09.622Z,0.50
2018-01-16T12:20:37.064Z,0.50
2018-01-16T12:23:04.486Z,0.50
2018-01-16T12:25:31.928Z,0.50
2018-01-16T12:27:59.343Z,0.60
2018-01-16T12:30:26.775Z,0.50
2018-01-16T12:32:54.202Z,0.50
2018-01-16T12:35:21.639Z,0.60
2018-01-16T12:37:49.063Z,0.60
2018-01-16T12:40:16.498Z,0.60
2018-01-16T12:42:43.922Z,0.60
2018-01-16T12:45:11.354Z,0.47
2018-01-16T12:47:38.782Z,0.50
2018-01-16T12:50:06.219Z,0.60
2018-01-16T12:52:33.647Z,0.50
2018-01-16T12:55:01.075Z,0.70
2018-01-16T12:57:28.503Z,0.60
2018-01-16T12:59:55.934Z,0.50
2018-01-16T13:02:23.363Z,0.50
2018-01-16T13:04:51.558Z,1.10
2018-01-16T13:07:19.751Z,3.77
2018-01-16T13:09:47.183Z,0.80
2018-01-16T13:12:14.610Z,2.40
2018-01-16T13:14:42.043Z,3.97
2018-01-16T13:17:09.467Z,0.80
2018-01-16T13:19:37.670Z,1.80
2018-01-16T13:22:05.095Z,0.70
2018-01-16T13:24:32.530Z,2.50
2018-01-16T13:26:59.956Z,1.40
2018-01-16T13:29:27.383Z,1.00
2018-01-16T13:31:54.827Z,1.05
2018-01-16T13:34:22.270Z,0.90
2018-01-16T13:36:49.704Z,1.10
2018-01-16T13:39:17.135Z,1.20
2018-01-16T13:41:45.330Z,1.03
2018-01-16T13:44:12.754Z,1.43
2018-01-16T13:46:40.187Z,1.10
2018-01-16T13:49:08.387Z,0.80
2018-01-16T13:51:36.586Z,0.63
2018-01-16T13:54:04.782Z,0.63
2018-01-16T13:56:32.983Z,0.60
2018-01-16T13:59:01.179Z,0.70
2018-01-16T14:01:29.379Z,0.60
2018-01-16T14:03:57.574Z,0.60
2018-01-16T14:06:25.771Z,0.60
2018-01-16T14:08:53.967Z,0.50
2018-01-16T14:11:21.395Z,0.60
2018-01-16T14:13:48.823Z,0.70
2018-01-16T14:16:16.251Z,0.70
2018-01-16T14:18:43.679Z,1.20
2018-01-16T14:21:11.107Z,0.70
2018-01-16T14:23:38.535Z,1.33
2018-01-16T14:26:05.964Z,0.70
2018-01-16T14:28:34.159Z,0.83
2018-01-16T14:31:01.603Z,0.60
2018-01-16T14:33:29.031Z,0.60
2018-01-16T14:35:57.230Z,0.60
2018-01-16T14:38:24.655Z,0.73
2018-01-16T14:40:52.082Z,0.70
2018-01-16T14:43:19.515Z,0.90
2018-01-16T14:45:46.938Z,0.70
2018-01-16T14:48:14.371Z,0.70
2018-01-16T14:50:41.799Z,0.80
2018-01-16T14:53:09.242Z,0.90
2018-01-16T14:55:36.666Z,0.90
2018-01-16T14:58:04.103Z,0.80
2018-01-16T15:00:31.530Z,4.60
2018-01-16T15:02:58.962Z,1.10
2018-01-16T15:05:26.386Z,0.60
2018-01-16T15:07:53.834Z,0.80
2018-01-16T15:10:21.262Z,2.70
2018-01-16T15:12:48.702Z,1.40
2018-01-16T15:15:16.140Z,1.87
2018-01-16T15:17:43.575Z,2.70
2018-01-16T15:20:11.003Z,3.00
2018-01-16T15:22:39.220Z,2.25
2018-01-16T15:25:06.643Z,2.08
2018-01-16T15:27:34.071Z,2.73
2018-01-16T15:30:01.510Z,1.77
2018-01-16T15:32:28.942Z,2.67
2018-01-16T15:34:56.370Z,1.80
2018-01-16T15:37:23.826Z,2.62
2018-01-16T15:39:51.254Z,1.73
2018-01-16T15:42:19.459Z,1.50
2018-01-16T15:44:47.646Z,2.17
2018-01-16T15:47:15.091Z,1.60
2018-01-16T15:49:42.527Z,2.40
2018-01-16T15:52:10.719Z,3.10
2018-01-16T15:54:38.910Z,2.45
2018-01-16T15:57:07.119Z,2.53
2018-01-16T15:59:35.327Z,2.78
2018-01-16T16:02:02.758Z,1.62
2018-01-16T16:04:30.183Z,1.60
2018-01-16T16:06:57.622Z,2.70
2018-01-16T16:09:25.054Z,1.62
2018-01-16T16:11:52.486Z,1.53
2018-01-16T16:14:19.914Z,1.40
2018-01-16T16:16:47.355Z,2.80
2018-01-16T16:19:14.786Z,4.00
2018-01-16T16:21:42.222Z,1.90
2018-01-16T16:24:09.647Z,2.58
2018-01-16T16:26:37.078Z,1.60
2018-01-16T16:29:04.503Z,4.00
2018-01-16T16:31:31.930Z,1.50
2018-01-16T16:33:59.367Z,1.70
2018-01-16T16:36:26.795Z,1.40
2018-01-16T16:38:54.230Z,1.80
2018-01-16T16:41:21.659Z,1.10
2018-01-16T16:43:49.097Z,1.07
2018-01-16T16:46:16.519Z,0.93
2018-01-16T16:48:43.955Z,1.37
2018-01-16T16:51:11.383Z,1.13
2018-01-16T16:53:38.814Z,1.80
2018-01-16T16:56:06.239Z,2.03
2018-01-16T16:58:33.674Z,1.63
2018-01-16T17:01:01.098Z,1.47
2018-01-16T17:03:28.534Z,1.57
2018-01-16T17:05:55.963Z,0.90
2018-01-16T17:08:23.395Z,0.80
2018-01-16T17:10:50.818Z,1.93
2018-01-16T17:13:18.255Z,1.30
2018-01-16T17:15:45.678Z,1.30
2018-01-16T17:18:13.111Z,0.93
2018-01-16T17:20:40.535Z,1.00
2018-01-16T17:23:07.967Z,1.77
2018-01-16T17:25:35.387Z,0.97
2018-01-16T17:28:02.850Z,0.90
2018-01-16T17:30:30.258Z,1.10
2018-01-16T17:32:57.693Z,1.77
2018-01-16T17:35:25.115Z,0.80
2018-01-16T17:37:52.569Z,1.50
2018-01-16T17:40:19.991Z,1.20
2018-01-16T17:42:47.427Z,0.90
2018-01-16T17:45:14.859Z,0.70
2018-01-16T17:47:42.294Z,1.00
2018-01-16T17:50:09.727Z,1.10
2018-01-16T17:52:37.155Z,1.25
2018-01-16T17:55:04.587Z,0.82
2018-01-16T17:57:32.018Z,0.90
2018-01-16T17:59:59.454Z,0.90
2018-01-16T18:02:27.652Z,1.30
2018-01-16T18:04:55.080Z,1.10
2018-01-16T18:07:22.519Z,1.60
2018-01-16T18:09:50.718Z,1.48
2018-01-16T18:12:18.915Z,1.10
2018-01-16T18:14:47.125Z,1.15
2018-01-16T18:17:15.311Z,1.33
2018-01-16T18:19:43.510Z,1.20
2018-01-16T18:22:11.707Z,1.70
2018-01-16T18:24:39.910Z,1.98
2018-01-16T18:27:08.123Z,1.70
2018-01-16T18:29:36.335Z,2.45
2018-01-16T18:32:03.762Z,4.80
2018-01-16T18:34:31.196Z,4.30
2018-01-16T18:36:58.627Z,5.22
2018-01-16T18:39:26.059Z,2.87
2018-01-16T18:41:53.489Z,3.00
2018-01-16T18:44:20.922Z,1.80
2018-01-16T18:46:48.347Z,2.67
2018-01-16T18:49:15.778Z,4.20
2018-01-16T18:51:43.208Z,4.17
2018-01-16T18:54:10.650Z,3.10
2018-01-16T18:56:38.075Z,2.90
2018-01-16T18:59:05.566Z,2.50
2018-01-16T19:01:33.011Z,2.00
2018-01-16T19:04:00.485Z,2.42
2018-01-16T19:06:27.930Z,2.10
2018-01-16T19:08:56.134Z,2.67
2018-01-16T19:11:23.567Z,2.25
2018-01-16T19:13:50.999Z,1.60
2018-01-16T19:16:18.442Z,3.25
2018-01-16T19:18:45.870Z,1.80
2018-01-16T19:21:13.310Z,1.20
2018-01-16T19:23:40.739Z,2.10
2018-01-16T19:26:08.175Z,3.78
2018-01-16T19:28:35.614Z,3.17
2018-01-16T19:31:03.056Z,2.12
2018-01-16T19:33:31.243Z,2.12
2018-01-16T19:35:59.485Z,1.87
2018-01-16T19:38:26.902Z,1.70
2018-01-16T19:40:54.341Z,1.40
2018-01-16T19:43:21.762Z,2.00
2018-01-16T19:45:49.244Z,5.00
2018-01-16T19:48:16.666Z,9.25
2018-01-16T19:50:44.103Z,12.90
2018-01-16T19:53:11.585Z,3.80
2018-01-16T19:55:39.823Z,2.70
2018-01-16T19:58:07.258Z,6.55
2018-01-16T20:00:34.686Z,4.80
2018-01-16T20:03:02.123Z,3.72
2018-01-16T20:05:29.589Z,3.22
2018-01-16T20:07:57.023Z,3.10
2018-01-16T20:10:25.261Z,2.50
2018-01-16T20:12:52.690Z,18.35
2018-01-16T20:15:20.933Z,14.50
2018-01-16T20:17:48.362Z,13.93
2018-01-16T20:20:15.810Z,7.53
2018-01-16T20:22:43.247Z,7.93
2018-01-16T20:25:11.485Z,9.83
2018-01-16T20:27:38.952Z,7.97
2018-01-16T20:30:06.371Z,6.50
2018-01-16T20:32:33.802Z,6.07
2018-01-16T20:35:01.228Z,4.63
2018-01-16T20:37:28.697Z,4.37
2018-01-16T20:39:56.208Z,5.53
2018-01-16T20:42:23.631Z,3.97
2018-01-16T20:44:51.097Z,5.17
2018-01-16T20:47:19.334Z,2.57
2018-01-16T20:49:46.784Z,2.73
2018-01-16T20:52:14.982Z,8.10
2018-01-16T20:54:42.410Z,10.37
2018-01-16T20:57:09.855Z,8.60
2018-01-16T20:59:37.282Z,4.40
2018-01-16T21:02:04.749Z,3.53
2018-01-16T21:04:32.170Z,2.87
2018-01-16T21:07:00.371Z,3.03
2018-01-16T21:09:28.571Z,4.03
2018-01-16T21:11:56.803Z,3.27
2018-01-16T21:14:24.226Z,3.30
2018-01-16T21:16:51.688Z,3.30
2018-01-16T21:19:19.926Z,4.27
2018-01-16T21:21:47.381Z,4.87
2018-01-16T21:24:14.799Z,5.30
2018-01-16T21:26:42.272Z,9.00
2018-01-16T21:29:10.522Z,10.53
2018-01-16T21:31:37.930Z,5.10
2018-01-16T21:34:05.367Z,4.60
2018-01-16T21:36:32.794Z,7.90
2018-01-16T21:39:00.268Z,4.43
2018-01-16T21:41:27.721Z,3.67
2018-01-16T21:43:55.194Z,2.03
2018-01-16T21:46:22.602Z,5.50
2018-01-16T21:48:50.081Z,3.50
2018-01-16T21:51:17.533Z,2.80
2018-01-16T21:53:44.955Z,2.67
2018-01-16T21:56:12.375Z,1.93
2018-01-16T21:58:40.578Z,4.43
2018-01-16T22:01:08.808Z,2.40
2018-01-16T22:03:36.235Z,3.27
2018-01-16T22:06:03.654Z,2.10
2018-01-16T22:08:31.086Z,4.30
2018-01-16T22:10:58.511Z,3.00
2018-01-16T22:13:25.943Z,3.10
2018-01-16T22:15:53.371Z,5.70
2018-01-16T22:18:20.806Z,3.10
2018-01-16T22:20:48.235Z,2.37
2018-01-16T22:23:15.667Z,3.07
2018-01-16T22:25:43.090Z,2.70
2018-01-16T22:28:10.522Z,1.73
2018-01-16T22:30:37.942Z,3.67
2018-01-16T22:33:05.379Z,1.90
2018-01-16T22:35:32.803Z,1.63
2018-01-16T22:38:00.234Z,1.97
2018-01-16T22:40:27.663Z,1.83
2018-01-16T22:42:55.090Z,1.90
2018-01-16T22:45:22.526Z,1.60
2018-01-16T22:47:49.951Z,1.97
2018-01-16T22:50:17.386Z,2.53
2018-01-16T22:52:44.818Z,2.13
2018-01-16T22:55:12.247Z,2.70
2018-01-16T22:57:40.450Z,2.50
2018-01-16T23:00:07.882Z,3.53
2018-01-16T23:02:35.306Z,4.00
2018-01-16T23:05:02.743Z,4.40
2018-01-16T23:07:30.163Z,3.83
2018-01-16T23:09:57.992Z,4.10
2018-01-16T23:12:25.400Z,4.20
2018-01-16T23:14:52.834Z,5.18
2018-01-16T23:17:20.263Z,3.63
2018-01-16T23:19:47.700Z,3.80
2018-01-16T23:22:15.134Z,4.53
2018-01-16T23:24:42.571Z,5.45
2018-01-16T23:27:09.998Z,4.40
2018-01-16T23:29:37.434Z,4.37
2018-01-16T23:32:04.854Z,3.70
2018-01-16T23:34:32.286Z,4.00
2018-01-16T23:36:59.739Z,3.23
2018-01-16T23:39:27.178Z,5.35
2018-01-16T23:41:54.612Z,5.40
2018-01-16T23:44:22.039Z,5.60
2018-01-16T23:46:49.466Z,4.10
2018-01-16T23:49:16.895Z,3.60
2018-01-16T23:51:44.326Z,3.17
2018-01-16T23:54:11.761Z,3.60
2018-01-16T23:56:39.183Z,3.43
2018-01-16T23:59:07.382Z,3.00
